メインページ
METAR-TAF:

METAR-TAF

空港 :

ポートタウンゼン, ワシントン, アメリカ合衆国

Jefferson County International Airport

緯度: 48-03-14N, 経度: 122-48-38W, 海抜: 33m

現時点の気象観測

当レポートは21分前の12:15(UTC)に作成
北西の風 3kt
気温 6°C
湿度 75%
気圧 1030 hPa
視程: 16.1km
高度2900ftの千切れ雲あり
高度3400ftの千切れ雲あり
高度4500ftの曇り

METAR: K0S9 221215Z AUTO 32003KT 10SM BKN029 BKN034 OVC045 06/02 A3043 RMK AO2

時間: 05:36 (12:36 UTC)


TAF: 見つかりません

4,000以上の空港の気象観測と天気予報(METAR報とTAF報)

利用可能な観測所は地図上に黄色い丸と赤い丸で示す。

丸の上にカーソルを重ねると観測所名を参照できる。

次にクリックすると気象観測と天気予報を参照できる。

マップの切り替え:黒色「×」印の緑ボタンをクリックして拡大、「-」印の緑ボタンをクリックして縮小、緑色の三角印をクリックして隣りの地図に切り替え


METAR-TAF: